Flight Track Log - Related Links

Times and Time Zones

All times are in EDT time to prevent confusion due to time zone crossing. See the LXJ437 flight status page for this flight to view local times or setup timezone preferences in your user account.

Time Position Orientation Groundspeed Altitude Reporting Facility
EDT Latitude Longitude Course Direction KTS MPH feet Rate Location/Type
Mon 10:21:10 AM 44.8500 -93.2000 121° Southeast 205 236 3,200  Level Minneapolis TRACON
Mon 10:22:20 AM 44.8050 -93.0928 121° Southeast 287 330 6,700 3,318 Climbing Minneapolis Center
Mon 10:23:22 AM 44.7644 -92.9881 119° Southeast 301 346 10,500 3,756 Climbing Minneapolis Center
Mon 10:24:23 AM 44.7322 -92.8586 109° East 349 402 14,400 3,600 Climbing Minneapolis Center
Mon 10:25:37 AM 44.6936 -92.7189 111° Southeast 382 440 18,600 3,618 Climbing Minneapolis Center
Mon 10:26:39 AM 44.6378 -92.5097 110° East 414 476 22,600 3,145 Climbing Minneapolis Center
Mon 10:27:41 AM 44.5925 -92.3456 111° Southeast 446 513 25,100 2,177 Climbing Minneapolis Center
Mon 10:28:43 AM 44.5428 -92.1786 113° Southeast 461 531 27,100 1,689 Climbing Minneapolis Center
Mon 10:29:56 AM 44.4642 -92.0322 127° Southeast 469 540 28,900 844 Climbing Minneapolis Center
Mon 10:30:58 AM 44.3692 -91.8481 126° Southeast 486 559 29,000 48 Climbing Minneapolis Center
Mon 10:32:00 AM 44.3036 -91.6806 119° Southeast 494 568 29,000  Level Minneapolis Center
Mon 10:33:02 AM 44.2411 -91.5119 117° Southeast 492 566 29,000  Level Minneapolis Center
Mon 10:34:16 AM 44.1639 -91.3122 118° Southeast 490 564 29,000  Level Minneapolis Center
Mon 10:35:30 AM 44.0931 -91.1278 118° Southeast 490 564 29,000  Level Minneapolis Center
Mon 10:36:32 AM 44.0156 -90.9281 118° Southeast 491 565 29,000  Level Minneapolis Center
Mon 10:37:34 AM 43.9500 -90.7625 119° Southeast 492 566 29,000  Level Minneapolis Center
Mon 10:38:36 AM 43.8722 -90.5497 117° Southeast 496 571 29,000  Level Minneapolis Center
Mon 10:39:35 AM 43.8206 -90.3869 114° Southeast 495 570 29,000  Level Chicago Center
Mon 10:40:39 AM 43.7611 -90.1992 114° Southeast 499 574 29,000  Level Minneapolis Center
Mon 10:41:39 AM 43.7036 -90.0267 115° Southeast 497 572 29,000  Level Chicago Center
Mon 10:41:41 AM 43.7036 -90.0267 115° Southeast 496 571 29,000 -484 Level Minneapolis Center
Mon 10:42:41 AM 43.6456 -89.8553 115° Southeast 493 567 28,500 -984 Descending Chicago Center
Mon 10:43:43 AM 43.5897 -89.6847 114° Southeast 489 563 27,000 -1,452 Descending Chicago Center
Mon 10:44:45 AM 43.5350 -89.5192 114° Southeast 480 552 25,500 -1,597 Descending Chicago Center
Mon 10:45:47 AM 43.4708 -89.3219 114° Southeast 482 555 23,700 -1,597 Descending Chicago Center
Mon 10:46:49 AM 43.4169 -89.1628 115° Southeast 464 534 22,200 -1,645 Descending Chicago Center
Mon 10:47:51 AM 43.3661 -89.0131 115° Southeast 439 505 20,300 -1,887 Descending Chicago Center
Mon 10:48:53 AM 43.3194 -88.8742 115° Southeast 407 468 18,300 -2,032 Descending Chicago Center
Mon 10:49:55 AM 43.2742 -88.7422 115° Southeast 389 448 16,100 -2,390 Descending Chicago Center
Mon 10:50:56 AM 43.2031 -88.6122 127° Southeast 380 437 13,400 -1,610 Descending Chicago Center
Mon 10:51:58 AM 43.1253 -88.5358 144° Southeast 349 402 12,800 -968 Descending Chicago Center
Mon 10:53:00 AM 43.0558 -88.4650 143° Southeast 318 366 11,400 -1,694 Descending Chicago Center
Mon 10:54:02 AM 42.9878 -88.3972 144° Southeast 306 352 9,300 -1,935 Descending Chicago Center
Mon 10:55:04 AM 42.9178 -88.3247 143° Southeast 313 360 7,400 -1,742 Descending Chicago Center
Mon 10:56:06 AM 42.8425 -88.2431 141° Southeast 300 345 5,700 -1,597 Descending Chicago Center
Mon 10:57:08 AM 42.7775 -88.1706 141° Southeast 302 348 4,100 -823 Descending Chicago Center
Mon 10:58:10 AM 42.7103 -88.1161 149° Southeast 289 333 4,000 -48 Descending Chicago Center
Mon 10:59:12 AM 42.6378 -88.1050 174° South 261 300 4,000  Level Chicago Center
Mon 11:00:13 AM 42.5700 -88.0908 171° South 249 287 4,000  Level Chicago Center
Mon 11:01:15 AM 42.5000 -88.0761 171° South 252 290 4,000 -290 Level Chicago Center
Mon 11:02:17 AM 42.4194 -88.0764 180° South 245 282 3,400 -484 Descending Chicago Center
Mon 11:03:19 AM 42.3575 -88.1036 198° South 236 272 3,000 -194 Descending Chicago Center
Mon 11:04:21 AM 42.3078 -88.1208 194° South 202 232 3,000  Level Chicago Center
Mon 11:05:22 AM 42.3025 -88.1706 262° West 166 191 3,000  Level Chicago Center
Mon 11:06:24 AM 42.2769 -88.2194 235° Southwest 167 192 3,000  Level Chicago Center
Mon 11:07:26 AM 42.2367 -88.2278 189° South 160 184 3,000  Level Chicago Center
Mon 11:08:28 AM 42.1847 -88.2133 168° South 161 185 3,000  Level Chicago Center
Mon 11:09:30 AM 42.1442 -88.1981 164° South 156 180 3,000  Level Chicago Center
Mon 11:10:31 AM 42.1036 -88.1861 168° South 153 176 3,000 -244 Level Chicago Center
Mon 11:11:33 AM 42.0600 -88.1994 193° South 160 184 2,500 -242 Descending Chicago Center
Mon 11:12:35 AM 42.0158 -88.2136 193° South 163 188 2,500 -390 Level Chicago Center
Mon 11:13:36 AM 41.9631 -88.2314 194° South 163 188 1,700 -732 Descending Chicago Center
Mon 11:14:38 AM 41.9225 -88.2453 194° South 159 183 1,000 -677 Descending Chicago Center
Mon 11:16:00 AM 41.9071 -88.2480 217° Southwest  Level Estimated

Login

Don't have an account? Register now (free) for customized features, flight alerts, and more!